Time;durP1;ratioP1;P1;durP2;ratioP2;P2;SDS_P1;SDS_P2;PMS_P1;PMS_P2;Temp;Humidity;BMP_temperature;BMP_pressure;BME280_temperature;BME280_humidity;BME280_pressure;Samples;Min_cycle;Max_cycle;Signal;HPM_P1;HPM_P2
2022/11/19 00:02:07;;;;;;;7.75;5.35;;;7.60;99.90;;;;;;4996451;28;20476;-67
2022/11/19 00:04:33;;;;;;;9.63;4.88;;;7.60;99.90;;;;;;4999267;28;20040;-67
2022/11/19 00:06:58;;;;;;;8.68;5.20;;;7.60;99.90;;;;;;5005379;28;20030;-67
2022/11/19 00:09:24;;;;;;;7.47;5.22;;;7.60;99.90;;;;;;5003239;28;20479;-67
2022/11/19 00:14:35;;;;;;;;;;;7.60;99.90;;;;;;5001219;28;20476;-67
2022/11/19 00:17:00;;;;;;;7.38;4.95;;;7.60;99.90;;;;;;4999844;28;19910;-67
2022/11/19 00:19:26;;;;;;;7.95;5.45;;;7.60;99.90;;;;;;5004050;28;20048;-67
2022/11/19 00:21:52;;;;;;;7.75;5.43;;;7.60;99.90;;;;;;4999707;28;20030;-67
2022/11/19 00:24:18;;;;;;;8.77;5.13;;;7.60;99.90;;;;;;5005011;28;20026;-67
2022/11/19 00:26:43;;;;;;;11.77;5.95;;;7.60;99.90;;;;;;4999263;28;20049;-67
2022/11/19 00:29:10;;;;;;;10.35;5.75;;;7.70;99.90;;;;;;5003408;28;20029;-68
2022/11/19 00:31:36;;;;;;;13.00;5.82;;;7.70;99.90;;;;;;4998181;28;20019;-66
2022/11/19 00:34:02;;;;;;;10.18;6.15;;;7.70;99.90;;;;;;5010097;28;20030;-67
2022/11/19 00:36:28;;;;;;;10.57;5.90;;;7.70;99.90;;;;;;5004048;28;20041;-67
2022/11/19 00:38:54;;;;;;;10.93;6.32;;;7.70;99.90;;;;;;4993138;28;20046;-68
2022/11/19 00:41:20;;;;;;;7.93;5.47;;;7.60;99.90;;;;;;4999322;28;20030;-67
2022/11/19 00:43:46;;;;;;;10.93;6.20;;;7.70;99.90;;;;;;5002242;28;20391;-67
2022/11/19 00:46:25;;;;;;;9.13;5.65;;;7.70;99.90;;;;;;5000515;28;20028;-66
2022/11/19 00:48:53;;;;;;;9.68;5.45;;;7.60;99.90;;;;;;5008080;28;20026;-67
2022/11/19 00:51:20;;;;;;;10.30;7.03;;;7.60;99.90;;;;;;4993684;28;20131;-67
2022/11/19 00:53:46;;;;;;;10.70;6.25;;;7.60;99.90;;;;;;5010812;28;20085;-67
2022/11/19 00:56:15;;;;;;;10.35;6.07;;;7.60;99.90;;;;;;5007462;28;20803;-67
2022/11/19 00:58:42;;;;;;;10.07;5.63;;;7.60;99.90;;;;;;5004535;28;20054;-67
2022/11/19 01:01:09;;;;;;;8.07;5.95;;;7.70;99.90;;;;;;4997506;28;20037;-67
2022/11/19 01:03:37;;;;;;;7.35;5.15;;;7.70;99.90;;;;;;5007536;28;20488;-68
2022/11/19 01:06:03;;;;;;;11.90;5.93;;;7.60;99.90;;;;;;4997125;28;20042;-67
2022/11/19 01:08:28;;;;;;;11.40;5.35;;;7.60;99.90;;;;;;4993713;28;20037;-67
2022/11/19 01:10:54;;;;;;;8.90;5.85;;;7.60;99.90;;;;;;4999998;28;20886;-67
2022/11/19 01:13:35;;;;;;;9.57;5.35;;;7.60;99.90;;;;;;5005895;28;20476;-67
2022/11/19 01:16:04;;;;;;;8.07;4.80;;;7.60;99.90;;;;;;5006643;28;20034;-67
2022/11/19 01:18:30;;;;;;;7.22;4.63;;;7.60;99.90;;;;;;5001697;28;20041;-67
2022/11/19 01:20:55;;;;;;;6.85;4.97;;;7.60;99.90;;;;;;4998933;28;20030;-67
2022/11/19 01:23:21;;;;;;;6.72;4.32;;;7.60;99.90;;;;;;4997735;28;20034;-67
2022/11/19 01:25:47;;;;;;;7.05;4.40;;;7.60;99.90;;;;;;4999724;28;20038;-68
2022/11/19 01:28:12;;;;;;;6.88;4.28;;;7.60;99.90;;;;;;4999821;28;20424;-67
2022/11/19 01:30:40;;;;;;;6.07;4.85;;;7.60;99.90;;;;;;4998672;28;20030;-67
2022/11/19 01:33:06;;;;;;;4.57;3.63;;;7.60;99.90;;;;;;4998741;28;20050;-67
2022/11/19 01:35:33;;;;;;;8.15;4.28;;;7.60;99.90;;;;;;4997901;28;20026;-67
2022/11/19 01:37:59;;;;;;;6.28;3.55;;;7.60;99.90;;;;;;4985900;28;20061;-67
2022/11/19 01:40:26;;;;;;;8.48;3.47;;;7.60;99.90;;;;;;4993903;28;20030;-68
2022/11/19 01:42:55;;;;;;;5.57;3.70;;;7.60;99.90;;;;;;4998968;28;20087;-67
2022/11/19 01:45:37;;;;;;;6.25;3.35;;;7.50;99.90;;;;;;5008940;28;20026;-66
2022/11/19 01:48:02;;;;;;;6.05;3.70;;;7.60;99.90;;;;;;4999547;28;20491;-67
2022/11/19 01:50:31;;;;;;;4.35;3.10;;;7.60;99.90;;;;;;5010942;28;20014;-67
2022/11/19 01:52:57;;;;;;;4.57;3.40;;;7.50;99.90;;;;;;5010196;28;20025;-67
2022/11/19 01:55:23;;;;;;;4.22;2.88;;;7.50;99.90;;;;;;5008609;28;20488;-67
2022/11/19 01:57:55;;;;;;;5.88;3.22;;;7.50;99.90;;;;;;4998349;28;20058;-66
2022/11/19 02:00:21;;;;;;;3.45;2.85;;;7.50;99.90;;;;;;5007095;28;20032;-68
2022/11/19 02:02:46;;;;;;;7.43;2.92;;;7.50;99.90;;;;;;4997332;28;20033;-67
2022/11/19 02:05:12;;;;;;;6.68;3.22;;;7.50;99.90;;;;;;5001172;28;20034;-67
2022/11/19 02:07:39;;;;;;;7.22;2.65;;;7.50;99.90;;;;;;4995148;28;20033;-67
2022/11/19 02:10:06;;;;;;;5.35;3.05;;;7.50;99.90;;;;;;5000007;28;20050;-67
2022/11/19 02:12:43;;;;;;;5.32;3.10;;;7.50;99.90;;;;;;4994019;28;20018;-67
2022/11/19 02:15:18;;;;;;;3.72;2.58;;;7.40;99.90;;;;;;4998636;28;20034;-67
2022/11/19 02:17:56;;;;;;;3.95;2.78;;;7.50;99.90;;;;;;4996936;28;20038;-67
2022/11/19 02:20:41;;;;;;;4.53;3.20;;;7.40;99.90;;;;;;4999206;28;20062;-66
2022/11/19 02:23:40;;;;;;;6.70;3.45;;;7.40;99.90;;;;;;4998326;28;20037;-67
2022/11/19 02:26:42;;;;;;;6.45;3.42;;;7.40;99.90;;;;;;5000540;28;20037;-67
2022/11/19 02:29:28;;;;;;;5.05;3.63;;;7.40;99.90;;;;;;4999327;28;20014;-67
2022/11/19 02:32:03;;;;;;;6.32;3.40;;;7.40;99.90;;;;;;4996473;28;20113;-66
2022/11/19 02:35:03;;;;;;;6.00;3.63;;;7.30;99.90;;;;;;4999149;28;20037;-67
2022/11/19 02:37:37;;;;;;;6.38;3.65;;;7.30;99.90;;;;;;4978755;28;20049;-67
2022/11/19 02:40:08;;;;;;;8.23;3.88;;;7.30;99.90;;;;;;4999224;28;20018;-66
2022/11/19 02:42:53;;;;;;;5.28;3.40;;;7.30;99.90;;;;;;5001828;28;20045;-67
2022/11/19 02:45:31;;;;;;;4.72;3.55;;;7.30;99.90;;;;;;5001400;28;20038;-67
2022/11/19 02:48:04;;;;;;;5.70;3.10;;;7.20;99.90;;;;;;5004262;28;20057;-67
2022/11/19 02:50:38;;;;;;;4.97;3.78;;;7.20;99.90;;;;;;4993767;28;20442;-67
2022/11/19 02:53:04;;;;;;;4.90;3.22;;;7.20;99.90;;;;;;4999434;28;20848;-67
2022/11/19 02:55:30;;;;;;;4.07;2.80;;;7.20;99.90;;;;;;4998394;28;20021;-67
2022/11/19 03:06:44;;;;;;;4.47;2.58;;;7.10;99.90;;;;;;5007297;28;20036;-65
2022/11/19 03:09:10;;;;;;;4.32;2.65;;;7.10;99.90;;;;;;4996797;28;20112;-67
2022/11/19 03:11:36;;;;;;;2.90;1.88;;;7.00;99.90;;;;;;4999001;28;20026;-67
2022/11/19 03:17:14;;;;;;;1.98;1.30;;;6.90;99.90;;;;;;5005138;28;20440;-67
2022/11/19 03:19:55;;;;;;;2.67;1.48;;;6.70;99.90;;;;;;5004314;28;20472;-67
2022/11/19 03:22:29;;;;;;;2.75;1.10;;;6.60;99.90;;;;;;4998546;28;20042;-67
2022/11/19 03:25:39;;;;;;;3.30;1.70;;;6.50;99.90;;;;;;4997851;28;20038;-67
2022/11/19 03:28:12;;;;;;;1.63;1.10;;;6.30;99.90;;;;;;4993628;28;20046;-67
2022/11/19 03:30:39;;;;;;;2.35;1.50;;;6.10;99.90;;;;;;5005563;28;20149;-67
2022/11/19 03:33:16;;;;;;;2.53;1.42;;;6.10;99.90;;;;;;5002177;28;20063;-67
2022/11/19 03:35:54;;;;;;;4.13;1.23;;;5.90;99.90;;;;;;4999046;28;20030;-67
2022/11/19 03:38:28;;;;;;;3.03;1.67;;;5.80;99.90;;;;;;4977662;28;20051;-67
2022/11/19 03:40:54;;;;;;;2.13;1.27;;;5.60;99.90;;;;;;5003263;28;20030;-68
2022/11/19 03:43:25;;;;;;;2.28;1.40;;;5.50;99.90;;;;;;4992374;28;20042;-67
2022/11/19 03:45:52;;;;;;;2.20;1.40;;;5.40;99.90;;;;;;4996441;28;20029;-67
2022/11/19 03:48:20;;;;;;;2.95;1.63;;;5.30;99.90;;;;;;4994600;28;20037;-67
2022/11/19 03:50:58;;;;;;;2.13;1.63;;;5.20;99.90;;;;;;4998710;28;20180;-67
2022/11/19 03:53:25;;;;;;;2.92;1.77;;;5.20;99.90;;;;;;5001388;28;20386;-67
2022/11/19 03:55:55;;;;;;;2.72;1.55;;;5.20;99.90;;;;;;4995124;28;20097;-68
2022/11/19 03:58:24;;;;;;;2.15;1.45;;;5.10;99.90;;;;;;4991592;28;20021;-68
2022/11/19 04:00:50;;;;;;;3.60;1.83;;;5.10;99.90;;;;;;4997195;28;20041;-68
2022/11/19 04:03:16;;;;;;;5.28;1.83;;;5.10;99.90;;;;;;5002735;28;20030;-67
2022/11/19 04:05:41;;;;;;;3.65;2.08;;;5.00;99.90;;;;;;4996124;28;20022;-67
2022/11/19 04:08:07;;;;;;;3.83;2.13;;;5.00;99.90;;;;;;4999363;28;20026;-68
2022/11/19 04:10:32;;;;;;;2.17;1.45;;;4.90;99.90;;;;;;5002581;28;20443;-68
2022/11/19 04:12:58;;;;;;;3.08;1.98;;;4.90;99.90;;;;;;4994715;28;20365;-67
2022/11/19 04:15:24;;;;;;;3.03;1.80;;;4.80;99.90;;;;;;4992131;28;20041;-67
2022/11/19 04:17:49;;;;;;;3.50;2.15;;;4.80;99.90;;;;;;5004345;28;20510;-67
2022/11/19 04:20:15;;;;;;;3.67;2.40;;;4.80;99.90;;;;;;4995029;28;20029;-67
2022/11/19 04:22:41;;;;;;;4.88;2.95;;;4.70;99.90;;;;;;4997985;28;20026;-68
2022/11/19 04:25:07;;;;;;;3.92;2.83;;;4.60;99.90;;;;;;5002251;28;20034;-68
2022/11/19 04:27:32;;;;;;;3.42;2.38;;;4.60;99.90;;;;;;5007343;28;20057;-67
2022/11/19 04:29:58;;;;;;;5.45;2.38;;;4.60;99.90;;;;;;5003542;28;20101;-67
2022/11/19 04:32:23;;;;;;;5.47;3.25;;;4.50;99.90;;;;;;5003559;28;20039;-67
2022/11/19 04:34:49;;;;;;;3.75;2.75;;;4.50;99.90;;;;;;5007456;28;20093;-67
2022/11/19 04:37:14;;;;;;;4.43;2.65;;;4.50;99.90;;;;;;5003317;28;20395;-68
2022/11/19 04:39:40;;;;;;;4.53;3.00;;;4.50;99.90;;;;;;4976878;28;20034;-67
2022/11/19 04:42:05;;;;;;;8.20;4.03;;;4.40;99.90;;;;;;4995547;28;20034;-67
2022/11/19 04:44:31;;;;;;;6.35;3.72;;;4.40;99.90;;;;;;5001669;28;20025;-67
2022/11/19 04:46:58;;;;;;;7.35;4.60;;;4.40;99.90;;;;;;4993866;28;20441;-67
2022/11/19 04:49:24;;;;;;;6.70;4.22;;;4.40;99.90;;;;;;5000995;28;20037;-68
2022/11/19 04:51:49;;;;;;;8.88;4.07;;;4.30;99.90;;;;;;5000834;28;20026;-67
2022/11/19 04:54:15;;;;;;;7.82;4.97;;;4.30;99.90;;;;;;5003288;28;20030;-67
2022/11/19 04:56:40;;;;;;;9.00;5.20;;;4.20;99.90;;;;;;4997122;28;20073;-67
2022/11/19 04:59:06;;;;;;;10.13;6.07;;;4.20;99.90;;;;;;5003909;28;20110;-67
2022/11/19 05:01:32;;;;;;;8.95;5.25;;;4.20;99.90;;;;;;5005863;28;20123;-67
2022/11/19 05:03:57;;;;;;;8.88;5.05;;;4.10;99.90;;;;;;5001220;28;20027;-68
2022/11/19 05:06:23;;;;;;;14.73;6.10;;;4.10;99.90;;;;;;4995040;28;20037;-68
2022/11/19 05:08:49;;;;;;;8.93;5.80;;;4.00;99.90;;;;;;5007441;28;20399;-67
2022/11/19 05:11:14;;;;;;;11.15;5.13;;;4.00;99.90;;;;;;5003950;28;20101;-67
2022/11/19 05:13:40;;;;;;;11.10;6.78;;;4.00;99.90;;;;;;5002822;28;20029;-68
2022/11/19 05:16:05;;;;;;;10.73;6.53;;;3.90;99.90;;;;;;5008378;28;20038;-68
2022/11/19 05:18:31;;;;;;;12.93;6.00;;;3.90;99.90;;;;;;5001462;28;20061;-66
2022/11/19 05:20:57;;;;;;;10.02;6.30;;;3.90;99.90;;;;;;5001037;28;20034;-67
2022/11/19 05:23:23;;;;;;;10.88;5.85;;;3.80;99.90;;;;;;5009545;28;20048;-68
2022/11/19 05:25:48;;;;;;;12.23;6.80;;;3.80;99.90;;;;;;5010135;28;20033;-67
2022/11/19 05:28:14;;;;;;;13.55;6.80;;;3.80;99.90;;;;;;5006937;28;20022;-65
2022/11/19 05:30:39;;;;;;;10.18;6.47;;;3.80;99.90;;;;;;4995792;28;20029;-67
2022/11/19 05:33:05;;;;;;;9.55;6.13;;;3.80;99.90;;;;;;4999368;28;20019;-67
2022/11/19 05:35:31;;;;;;;11.25;6.32;;;3.70;99.90;;;;;;4998485;28;20527;-68
2022/11/19 05:37:56;;;;;;;11.18;6.25;;;3.70;99.90;;;;;;5006415;28;20026;-67
2022/11/19 05:40:22;;;;;;;11.68;7.00;;;3.70;99.90;;;;;;4986073;28;20050;-67
2022/11/19 05:42:47;;;;;;;12.27;7.43;;;3.70;99.90;;;;;;5008835;28;20033;-67
2022/11/19 05:45:13;;;;;;;10.52;6.72;;;3.70;99.90;;;;;;5007546;28;20042;-68
2022/11/19 05:47:39;;;;;;;17.88;8.38;;;3.70;99.90;;;;;;5008488;28;20030;-67
2022/11/19 05:50:05;;;;;;;12.02;7.25;;;3.70;99.90;;;;;;5007608;28;20014;-67
2022/11/19 05:52:31;;;;;;;13.32;7.68;;;3.70;99.90;;;;;;4996495;28;20040;-67
2022/11/19 05:54:56;;;;;;;15.77;9.00;;;3.70;99.90;;;;;;5002793;28;20026;-67
2022/11/19 05:57:22;;;;;;;12.80;7.82;;;3.70;99.90;;;;;;5002395;28;20029;-67
2022/11/19 05:59:48;;;;;;;13.43;8.05;;;3.70;99.90;;;;;;4992900;28;20499;-67
2022/11/19 06:02:13;;;;;;;18.48;9.90;;;3.60;99.90;;;;;;4994760;28;20034;-67
2022/11/19 06:04:39;;;;;;;14.52;7.57;;;3.60;99.90;;;;;;5000025;28;20026;-67
2022/11/19 06:07:04;;;;;;;15.63;9.05;;;3.60;99.90;;;;;;5007192;28;20448;-66
2022/11/19 06:09:31;;;;;;;13.02;8.05;;;3.50;99.90;;;;;;4999230;28;20059;-67
2022/11/19 06:11:56;;;;;;;16.13;9.55;;;3.40;99.90;;;;;;5004608;28;20046;-67
2022/11/19 06:14:24;;;;;;;16.55;8.77;;;3.40;99.90;;;;;;5001089;28;20119;-67
2022/11/19 06:16:50;;;;;;;16.02;8.85;;;3.30;99.90;;;;;;4995982;28;20026;-67
2022/11/19 06:19:17;;;;;;;19.40;10.07;;;3.30;99.90;;;;;;4998552;28;20038;-67
2022/11/19 06:21:43;;;;;;;19.25;10.93;;;3.30;99.90;;;;;;4993795;28;20041;-67
2022/11/19 06:24:09;;;;;;;18.83;11.02;;;3.20;99.90;;;;;;5002060;28;20026;-67
2022/11/19 06:26:34;;;;;;;18.15;10.10;;;3.30;99.90;;;;;;5002958;28;20034;-67
2022/11/19 06:29:00;;;;;;;18.88;10.90;;;3.30;99.90;;;;;;4998657;28;20038;-67
2022/11/19 06:31:25;;;;;;;18.98;10.48;;;3.30;99.90;;;;;;5003087;28;20034;-67
2022/11/19 06:33:52;;;;;;;16.65;10.93;;;3.20;99.90;;;;;;5007809;28;20026;-67
2022/11/19 06:36:18;;;;;;;17.88;10.30;;;3.10;99.90;;;;;;5008383;28;20098;-67
2022/11/19 06:38:43;;;;;;;18.95;11.80;;;3.20;99.90;;;;;;4990842;28;20544;-67
2022/11/19 06:41:09;;;;;;;21.40;11.35;;;3.20;99.90;;;;;;5002576;28;20029;-67
2022/11/19 06:43:35;;;;;;;18.90;10.90;;;3.20;99.90;;;;;;4998852;28;20026;-67
2022/11/19 06:46:00;;;;;;;18.35;10.57;;;3.20;99.90;;;;;;4998322;28;20460;-67
2022/11/19 06:48:26;;;;;;;25.42;12.15;;;3.20;99.90;;;;;;4998158;28;20076;-67
2022/11/19 06:50:51;;;;;;;24.50;12.30;;;3.20;99.90;;;;;;5001424;28;20113;-68
2022/11/19 06:53:17;;;;;;;20.30;11.00;;;3.30;99.90;;;;;;4995860;28;20037;-68
2022/11/19 06:55:43;;;;;;;22.88;12.70;;;3.20;99.90;;;;;;4997751;28;20025;-67
2022/11/19 06:58:08;;;;;;;23.83;12.52;;;3.20;99.90;;;;;;4999735;28;20512;-68
2022/11/19 07:00:34;;;;;;;22.20;11.90;;;3.20;99.90;;;;;;4999738;28;20082;-68
2022/11/19 07:03:01;;;;;;;21.15;12.02;;;3.20;99.90;;;;;;4995821;28;20030;-68
2022/11/19 07:05:26;;;;;;;20.95;10.95;;;3.10;99.90;;;;;;5001501;28;20408;-68
2022/11/19 07:07:52;;;;;;;23.35;12.20;;;3.10;99.90;;;;;;5007778;28;20096;-67
2022/11/19 07:10:18;;;;;;;21.77;11.63;;;3.20;99.90;;;;;;4995393;28;20072;-68
2022/11/19 07:12:43;;;;;;;25.05;13.45;;;3.10;99.90;;;;;;4999196;28;20027;-67
2022/11/19 07:15:10;;;;;;;21.08;11.95;;;3.10;99.90;;;;;;4996047;28;20029;-68
2022/11/19 07:17:36;;;;;;;24.20;13.43;;;3.10;99.90;;;;;;4993427;28;20491;-67
2022/11/19 07:20:06;;;;;;;22.35;12.23;;;3.10;99.90;;;;;;5003859;28;20026;-68
2022/11/19 07:22:31;;;;;;;21.23;11.25;;;3.10;99.90;;;;;;4999817;28;20067;-67
2022/11/19 07:24:57;;;;;;;25.30;12.15;;;3.10;99.90;;;;;;5003249;28;20018;-68
2022/11/19 07:27:23;;;;;;;20.60;11.02;;;3.10;99.90;;;;;;5004435;28;20022;-67
2022/11/19 07:29:48;;;;;;;22.05;11.80;;;3.10;99.90;;;;;;5004474;28;20018;-68
2022/11/19 07:32:14;;;;;;;20.05;11.38;;;3.10;99.90;;;;;;5000466;28;20108;-67
2022/11/19 07:34:39;;;;;;;21.20;12.88;;;3.10;99.90;;;;;;4997209;28;20026;-68
2022/11/19 07:37:05;;;;;;;22.30;11.73;;;3.10;99.90;;;;;;5001250;28;20021;-67
2022/11/19 07:39:30;;;;;;;21.52;11.82;;;3.10;99.90;;;;;;4980467;28;20137;-67
2022/11/19 07:44:40;;;;;;;21.88;11.55;;;3.10;99.90;;;;;;4993573;28;20519;-68
2022/11/19 07:47:09;;;;;;;21.63;11.88;;;3.20;99.90;;;;;;5004717;28;20038;-68
2022/11/19 07:49:34;;;;;;;22.08;11.10;;;3.20;99.90;;;;;;4997854;28;20506;-67
2022/11/19 07:52:00;;;;;;;22.10;11.65;;;3.20;99.90;;;;;;5001676;28;20022;-68
2022/11/19 07:54:26;;;;;;;20.52;11.40;;;3.30;99.90;;;;;;4998991;28;20518;-68
2022/11/19 07:56:52;;;;;;;20.33;10.95;;;3.30;99.90;;;;;;5002641;28;20399;-68
2022/11/19 07:59:17;;;;;;;21.73;11.77;;;3.30;99.90;;;;;;4995706;28;20169;-68
2022/11/19 08:01:43;;;;;;;23.42;12.85;;;3.40;99.90;;;;;;4995429;28;20045;-67
2022/11/19 08:04:08;;;;;;;20.15;11.77;;;3.50;99.90;;;;;;4995660;28;20038;-68
2022/11/19 08:06:34;;;;;;;18.20;10.20;;;3.40;99.90;;;;;;4999682;28;20029;-68
2022/11/19 08:09:01;;;;;;;18.60;10.50;;;3.30;99.90;;;;;;5007061;28;20026;-67
2022/11/19 08:11:27;;;;;;;19.15;9.95;;;3.40;99.90;;;;;;4996625;28;20088;-68
2022/11/19 08:13:53;;;;;;;18.85;9.75;;;3.40;99.90;;;;;;5000099;28;20034;-67
2022/11/19 08:19:07;;;;;;;18.38;9.23;;;3.30;99.90;;;;;;4995451;28;20041;-66
2022/11/19 08:21:33;;;;;;;18.63;10.70;;;3.30;99.90;;;;;;4999188;28;20041;-68
2022/11/19 08:23:59;;;;;;;17.08;9.80;;;3.30;99.90;;;;;;5007249;28;20029;-67
2022/11/19 08:26:24;;;;;;;18.33;10.15;;;3.30;99.90;;;;;;4990766;28;20038;-67
2022/11/19 08:28:50;;;;;;;18.60;10.02;;;3.40;99.90;;;;;;4996759;28;20453;-68
2022/11/19 08:31:15;;;;;;;18.75;10.27;;;3.40;99.90;;;;;;5000400;28;20034;-67
2022/11/19 08:33:41;;;;;;;16.75;9.43;;;3.50;99.90;;;;;;5005745;28;20029;-68
2022/11/19 08:36:06;;;;;;;15.70;8.75;;;3.50;99.90;;;;;;5008057;28;20034;-67
2022/11/19 08:38:32;;;;;;;20.48;10.18;;;3.50;99.90;;;;;;5008325;28;20414;-68
2022/11/19 08:43:42;;;;;;;16.17;8.98;;;3.50;99.90;;;;;;5014283;28;20051;-67
2022/11/19 08:46:07;;;;;;;17.63;9.20;;;3.60;99.90;;;;;;5004839;28;20042;-67
2022/11/19 08:48:33;;;;;;;19.25;9.68;;;3.60;99.90;;;;;;5000993;28;20032;-67
2022/11/19 08:51:06;;;;;;;17.23;10.00;;;3.70;99.90;;;;;;5007412;28;20492;-67
2022/11/19 08:53:32;;;;;;;17.60;9.40;;;3.80;99.90;;;;;;5000334;28;20030;-67
2022/11/19 08:55:57;;;;;;;16.67;9.57;;;3.90;99.90;;;;;;5001869;28;20017;-67
2022/11/19 08:58:23;;;;;;;16.65;9.35;;;4.00;99.90;;;;;;4995610;28;20037;-68
2022/11/19 09:00:50;;;;;;;15.48;8.88;;;3.90;99.90;;;;;;5006987;28;20037;-68
2022/11/19 09:03:16;;;;;;;17.67;9.38;;;3.90;99.90;;;;;;5001061;28;20023;-68
2022/11/19 09:05:41;;;;;;;15.52;8.88;;;4.00;99.90;;;;;;4996897;28;20076;-68
2022/11/19 09:08:07;;;;;;;17.17;8.88;;;4.00;99.90;;;;;;4997699;28;20018;-67
2022/11/19 09:10:33;;;;;;;18.88;8.98;;;4.10;99.90;;;;;;5008506;28;20038;-68
2022/11/19 09:13:03;;;;;;;16.35;9.10;;;4.10;99.90;;;;;;4998255;28;20471;-67
2022/11/19 09:15:29;;;;;;;16.15;9.07;;;4.00;99.90;;;;;;5001493;28;20355;-68
2022/11/19 09:17:55;;;;;;;16.88;9.02;;;3.90;99.90;;;;;;4999504;28;20500;-67
2022/11/19 09:20:20;;;;;;;15.70;9.25;;;4.00;99.90;;;;;;4995789;28;20051;-67
2022/11/19 09:22:46;;;;;;;16.35;9.68;;;4.00;99.90;;;;;;5003744;28;20031;-68
2022/11/19 09:25:11;;;;;;;14.35;8.50;;;4.00;99.90;;;;;;5005083;28;20087;-67
2022/11/19 09:27:37;;;;;;;20.05;9.07;;;4.00;99.90;;;;;;5009224;28;20111;-68
2022/11/19 09:30:04;;;;;;;18.08;8.48;;;4.00;99.90;;;;;;5014045;28;20188;-67
2022/11/19 09:32:30;;;;;;;16.85;9.50;;;4.00;99.90;;;;;;5009553;28;20030;-68
2022/11/19 09:34:56;;;;;;;15.80;8.88;;;4.00;99.90;;;;;;5004330;28;20668;-67
2022/11/19 09:37:23;;;;;;;15.70;8.63;;;3.80;99.90;;;;;;5000596;28;20180;-67
2022/11/19 09:39:48;;;;;;;16.33;9.32;;;3.90;99.90;;;;;;4981904;28;20121;-68
2022/11/19 09:42:30;;;;;;;13.70;8.02;;;4.00;99.90;;;;;;5000412;28;20414;-67
2022/11/19 09:45:17;;;;;;;16.63;7.70;;;4.00;99.90;;;;;;4999552;28;20113;-67
2022/11/19 09:47:54;;;;;;;13.27;7.85;;;4.00;99.90;;;;;;5002054;28;20041;-67
2022/11/19 09:50:21;;;;;;;13.48;7.45;;;4.00;99.90;;;;;;5002034;28;20025;-67
2022/11/19 09:52:57;;;;;;;14.43;7.60;;;4.00;99.90;;;;;;5000512;28;20026;-68
2022/11/19 09:55:29;;;;;;;13.02;7.60;;;4.00;99.90;;;;;;5002134;28;20030;-68
2022/11/19 09:57:56;;;;;;;13.40;7.72;;;3.90;99.90;;;;;;5004665;28;20030;-67
2022/11/19 10:00:26;;;;;;;14.48;8.02;;;3.90;99.90;;;;;;4998047;28;20123;-68
2022/11/19 10:02:53;;;;;;;15.98;8.52;;;3.80;99.90;;;;;;5003170;28;20166;-67
2022/11/19 10:05:42;;;;;;;13.60;8.32;;;3.90;99.90;;;;;;5012355;28;20048;-68
2022/11/19 10:09:12;;;;;;;15.68;7.88;;;3.80;99.90;;;;;;5001171;28;20041;-67
2022/11/19 10:11:56;;;;;;;16.75;8.05;;;3.90;99.90;;;;;;4896578;29;20117;-67
2022/11/19 10:14:28;;;;;;;15.27;7.97;;;3.90;99.90;;;;;;4995612;28;20045;-68
2022/11/19 10:17:08;;;;;;;14.38;7.85;;;3.90;99.90;;;;;;4992272;28;20034;-67
2022/11/19 10:19:33;;;;;;;14.07;7.65;;;4.00;99.90;;;;;;5004540;28;20706;-68
2022/11/19 10:22:12;;;;;;;14.73;7.53;;;4.00;99.90;;;;;;5007627;28;20037;-67
2022/11/19 10:24:42;;;;;;;14.38;7.70;;;4.10;99.90;;;;;;4999566;28;20014;-68
2022/11/19 10:27:24;;;;;;;14.75;7.63;;;4.10;99.90;;;;;;4998357;28;20022;-67
2022/11/19 10:29:54;;;;;;;13.25;6.85;;;3.90;99.90;;;;;;5007096;28;20072;-68
2022/11/19 10:32:37;;;;;;;12.30;7.18;;;4.00;99.90;;;;;;5009464;28;20029;-67
2022/11/19 10:35:13;;;;;;;12.88;7.05;;;4.00;99.90;;;;;;4992779;28;20030;-66
2022/11/19 10:37:47;;;;;;;15.20;7.85;;;3.90;99.90;;;;;;4998878;28;20033;-68
2022/11/19 10:40:22;;;;;;;13.70;7.53;;;3.90;99.90;;;;;;4991533;28;20053;-67
2022/11/19 10:42:54;;;;;;;13.63;7.35;;;3.90;99.90;;;;;;4993152;28;20484;-68
2022/11/19 10:45:25;;;;;;;11.98;6.85;;;4.00;99.90;;;;;;4992998;28;20117;-68
2022/11/19 10:48:18;;;;;;;11.43;6.68;;;4.00;99.90;;;;;;5001467;28;20109;-68
2022/11/19 10:50:44;;;;;;;12.43;6.78;;;4.10;99.90;;;;;;4981793;28;20052;-67
2022/11/19 10:53:23;;;;;;;14.90;7.75;;;4.10;99.90;;;;;;5004568;28;20026;-68
2022/11/19 10:55:52;;;;;;;13.52;7.97;;;4.10;99.90;;;;;;5001532;28;20084;-69
2022/11/19 10:58:35;;;;;;;13.10;7.20;;;4.20;99.90;;;;;;5005367;28;20037;-67
2022/11/19 11:01:03;;;;;;;14.10;8.27;;;4.20;99.90;;;;;;4991707;28;20026;-68
2022/11/19 11:03:40;;;;;;;19.00;8.75;;;4.20;99.90;;;;;;5002400;28;20034;-67
2022/11/19 11:06:08;;;;;;;12.75;7.15;;;4.10;99.90;;;;;;5002190;28;20033;-68
2022/11/19 11:08:55;;;;;;;15.88;7.72;;;4.10;99.90;;;;;;4999099;28;20145;-68
2022/11/19 11:14:50;;;;;;;14.88;7.32;;;4.30;99.90;;;;;;5001828;28;20034;-68
2022/11/19 11:16:57;;;;;;;16.30;8.15;;;4.50;99.90;;;;;;4998360;28;20040;-67
2022/11/19 11:19:23;;;;;;;15.50;8.18;;;4.50;99.90;;;;;;4993600;28;20035;-68
2022/11/19 11:21:54;;;;;;;13.00;6.78;;;4.40;99.90;;;;;;5006166;28;20569;-67
2022/11/19 11:24:20;;;;;;;13.88;7.18;;;4.30;99.90;;;;;;5005302;28;20470;-68
2022/11/19 11:26:46;;;;;;;14.35;8.23;;;4.40;99.90;;;;;;4993647;28;20110;-67
2022/11/19 11:29:11;;;;;;;14.25;8.82;;;4.40;99.90;;;;;;5010914;28;20080;-68
2022/11/19 11:31:41;;;;;;;14.20;8.02;;;4.60;99.90;;;;;;4995830;28;20026;-68
2022/11/19 11:34:33;;;;;;;16.02;8.18;;;4.50;99.90;;;;;;4997594;28;20046;-67
2022/11/19 11:37:01;;;;;;;14.25;7.93;;;4.50;99.90;;;;;;4996868;28;20404;-68
2022/11/19 11:39:37;;;;;;;13.57;7.88;;;4.50;99.90;;;;;;4977577;28;20125;-67
2022/11/19 11:42:03;;;;;;;12.65;7.75;;;4.70;99.90;;;;;;4995445;28;20057;-68
2022/11/19 11:44:35;;;;;;;13.15;7.38;;;4.70;99.90;;;;;;4999881;28;20113;-67
2022/11/19 11:47:10;;;;;;;12.48;6.80;;;4.80;99.90;;;;;;4996389;28;20108;-67
2022/11/19 11:49:42;;;;;;;16.65;7.70;;;4.80;99.90;;;;;;4999849;28;20492;-68
2022/11/19 11:52:08;;;;;;;10.57;6.53;;;5.00;99.90;;;;;;4997610;28;20030;-67
2022/11/19 11:54:34;;;;;;;12.52;7.07;;;4.90;99.90;;;;;;4996152;28;20387;-67
2022/11/19 11:57:15;;;;;;;14.95;7.57;;;4.90;99.90;;;;;;5000042;28;20036;-67
2022/11/19 11:59:41;;;;;;;14.40;7.50;;;5.00;99.90;;;;;;5002241;28;20030;-68
2022/11/19 12:02:20;;;;;;;13.00;7.40;;;4.90;99.90;;;;;;5008783;28;20032;-67
2022/11/19 12:04:45;;;;;;;13.25;7.68;;;4.90;99.90;;;;;;5003252;28;20108;-68
2022/11/19 12:07:53;;;;;;;14.43;7.85;;;5.00;99.90;;;;;;5012897;28;20127;-68
2022/11/19 12:10:25;;;;;;;12.02;7.00;;;5.10;99.90;;;;;;4955686;28;20039;-68
2022/11/19 12:13:09;;;;;;;14.30;8.00;;;4.90;99.90;;;;;;4942966;28;20078;-68
2022/11/19 12:15:38;;;;;;;;;;;4.90;99.90;;;;;;4978779;28;20037;-67
2022/11/19 12:18:20;;;;;;;12.25;7.35;;;4.90;99.90;;;;;;5001351;28;19909;-67
2022/11/19 12:21:04;;;;;;;13.65;6.97;;;4.90;99.90;;;;;;5001460;28;20030;-68
2022/11/19 12:23:38;;;;;;;12.52;7.35;;;4.80;99.90;;;;;;5000460;28;20088;-68
2022/11/19 12:26:12;;;;;;;13.10;7.65;;;4.70;99.90;;;;;;4999266;28;20022;-67
2022/11/19 12:29:13;;;;;;;12.82;7.65;;;4.70;99.90;;;;;;5000792;28;20048;-66
2022/11/19 12:31:56;;;;;;;13.15;7.15;;;4.60;99.90;;;;;;5008500;28;20113;-67
2022/11/19 12:34:24;;;;;;;13.45;7.80;;;4.50;99.90;;;;;;4998083;28;20036;-68
2022/11/19 12:37:18;;;;;;;14.23;7.72;;;4.50;99.90;;;;;;5006416;28;20030;-68
2022/11/19 12:39:53;;;;;;;13.30;7.30;;;4.50;99.90;;;;;;4976887;28;20047;-67
2022/11/19 12:42:30;;;;;;;13.60;7.65;;;4.60;99.90;;;;;;5000994;28;20030;-68
2022/11/19 12:45:13;;;;;;;16.58;7.47;;;4.50;99.90;;;;;;4991437;28;20414;-67
2022/11/19 12:48:00;;;;;;;14.55;7.03;;;4.50;99.90;;;;;;4975922;28;20026;-66
2022/11/19 12:50:44;;;;;;;13.00;6.43;;;4.50;99.90;;;;;;4981273;28;20057;-68
2022/11/19 12:53:18;;;;;;;14.20;7.30;;;4.60;99.90;;;;;;4984323;28;20142;-67
2022/11/19 12:55:59;;;;;;;;;;;4.60;99.90;;;;;;4989018;28;20030;-68
2022/11/19 12:58:54;;;;;;;11.38;6.68;;;4.60;99.90;;;;;;4987348;28;19999;-68
2022/11/19 13:01:25;;;;;;;10.65;6.47;;;4.70;99.90;;;;;;4986506;28;20030;-68
2022/11/19 13:04:10;;;;;;;14.13;6.25;;;4.60;99.90;;;;;;4983740;28;20023;-67
2022/11/19 13:06:54;;;;;;;11.60;6.15;;;4.60;99.90;;;;;;4977746;28;20492;-67
2022/11/19 13:09:46;;;;;;;12.30;6.93;;;4.60;99.90;;;;;;4979938;28;20027;-68
2022/11/19 13:12:19;;;;;;;10.57;6.53;;;4.60;99.90;;;;;;4989116;28;20029;-68
2022/11/19 13:14:55;;;;;;;12.93;6.93;;;4.60;99.90;;;;;;4987000;28;20155;-68
2022/11/19 13:17:35;;;;;;;13.10;7.03;;;4.60;99.90;;;;;;4978019;28;20114;-68
2022/11/19 13:20:05;;;;;;;12.43;6.70;;;4.60;99.90;;;;;;4982029;28;20037;-68
2022/11/19 13:22:35;;;;;;;15.43;7.40;;;4.80;99.90;;;;;;4986211;28;20045;-68
2022/11/19 13:25:23;;;;;;;10.38;6.22;;;4.70;99.90;;;;;;4982071;28;20030;-69
2022/11/19 13:27:51;;;;;;;12.52;7.10;;;4.70;99.90;;;;;;4975828;28;20041;-68
2022/11/19 13:30:20;;;;;;;13.02;6.72;;;4.80;99.90;;;;;;4987937;28;20089;-68
2022/11/19 13:33:13;;;;;;;11.80;7.38;;;4.70;99.90;;;;;;4981142;28;20026;-68